Airfield :
LOGIN :

Register | Disclaimer

   EN    FR    IT 

 










Legend :    VFR   Marginal VFR   IFR   Intensive IFR   Very Intensive IFR
Visi :
Ceiling :
>= 8 km
>= 3000ft
5 to 8 km
1000 to 3000 ft
1500m to 5 km
500 to 1000 ft
800 to 1500m
200 to 500 ft
< 800m
< 200 ft
Symbols :   Thunderstorms  Fog  Heavy snow  Heavy precipitations  Wind > 20 kt
SIGMETs :     Misc.  Thunderstorms  Icing  Turbulence  Mountain Waves  Volcanic Ashes







- Airport Elevation : 1273 ft
- IATA code : LJU


LJLJ - Ljubljana

CURRENT METAR :
  • 231930Z 30007KT 9999 -RA BKN057 07/05 Q1021 NOSIG

EXPIRED METARs :
  • 231900Z 29006KT 9999 BKN057 07/05 Q1021 NOSIG
  • 231830Z 31004KT 9999 -RA FEW023 BKN057 07/05 Q1021 NOSIG
  • 231800Z 33003KT 300V010 9999 -RA FEW023 BKN057 07/05 Q1020 NOSIG
  • 231730Z 33004KT 290V010 9999 -RA FEW023 BKN057 07/04 Q1020 NOSIG
  • 231700Z 28004KT 9999 -RA FEW023 BKN057 08/04 Q1020 NOSIG

TAF TAF LJLJ
Valid from the 23 at 18:00 until the 24 at 18:00 UTC


231700Z 2318/2418 29002KT 9999 FEW020 BKN065
TEMPO 2318/2321 -RA
TEMPO 2409/2418 FEW030 BKN045
BECMG 2409/2411 25005KT
No reported NOTAMs for that airfield.



MET'MAP, your aeronautical weather chart ! - Copyright ORBIFLY December 2007 - Disclaimer

ORBIFLY MET'MAP TEAM :

Programming & Development : Alexandra Zaïnal
Concept & Development : Baudouin d'Aumeries
Co-Development & Prog : Marc-Olivier Méhu
Technical & hardware support : Manuel Goepfert

Contact : metmap@orbifly.com




SOURCES & CREDITS :

   NOAA